Peotone Weather
Station Historical Data
Daily Summary for May 18, 2017 Units:  English    Metric   Both
« Previous Day
Next Day »
Daily Weekly Monthly Yearly Custom
  High: Low: Average:
Temperature: 84.7 °F 51.7 °F 72.8 °F
Dew Point: 65.2 °F 44.7 °F 61 °F
Humidity: 89% 44% 68%
Wind Speed: 38.0mph 0.0mph 12.8mph
Wind Gust: 46.0mph - -
Wind- - SW
Pressure: 30.01 in 29.61 in -
Precipitation: 0.31 in    
Historical Graphs
 
 
Tabular Data for May 18, 2017
Time Temperature Dew Point Pressure Wind Wind Speed Wind Gust Humidity Rainfall Rate (Hourly) solar Conditions
00:00 76.2 °F 62.7 °F 29.61 in SSW 16.1 mph 24.1 mph 63% 0.00 in 0.00 W/m2
00:05 76.3 °F 62.8 °F 29.61 in SW 10.3 mph 33.3 mph 63% 0.00 in 0.00 W/m2
00:10 76.2 °F 62.7 °F 29.62 in South 31.0 mph 31.0 mph 63% 0.00 in 0.00 W/m2
00:15 76.3 °F 62.8 °F 29.62 in South 27.6 mph 36.8 mph 63% 0.00 in 0.00 W/m2
00:20 76.3 °F 62.8 °F 29.62 in South 21.9 mph 34.5 mph 63% 0.00 in 0.00 W/m2
00:25 76.1 °F 63.0 °F 29.62 in South 16.1 mph 25.3 mph 64% 0.00 in 0.00 W/m2
00:30 75.9 °F 62.9 °F 29.62 in SW 13.8 mph 32.2 mph 64% 0.00 in 0.00 W/m2
00:35 75.7 °F 62.7 °F 29.62 in South 25.3 mph 27.6 mph 64% 0.00 in 0.00 W/m2
00:40 75.7 °F 63.1 °F 29.62 in SSE 25.3 mph 27.6 mph 65% 0.00 in 0.00 W/m2
00:45 75.6 °F 63.0 °F 29.62 in SSW 13.8 mph 39.1 mph 65% 0.00 in 0.00 W/m2
00:46 75.7 °F 63.1 °F 29.62 in South 10.3 mph 39.1 mph 65% 0.00 in 0.00 W/m2
00:50 75.6 °F 63.0 °F 29.62 in SSW 8.1 mph 29.9 mph 65% 0.00 in 0.00 W/m2
00:51 75.6 °F 63.0 °F 29.62 in SE 19.5 mph 29.9 mph 65% 0.00 in 0.00 W/m2
00:55 75.5 °F 62.9 °F 29.62 in South 32.2 mph 32.2 mph 65% 0.00 in 0.00 W/m2
00:56 75.5 °F 62.9 °F 29.62 in South 13.8 mph 27.6 mph 65% 0.00 in 0.00 W/m2
01:00 75.6 °F 63.0 °F 29.62 in SW 10.4 mph 32.2 mph 65% 0.00 in 0.00 W/m2
01:01 75.6 °F 63.0 °F 29.62 in SSE 14.9 mph 32.2 mph 65% 0.00 in 0.00 W/m2
01:05 75.7 °F 63.1 °F 29.62 in South 14.9 mph 31.0 mph 65% 0.00 in 0.00 W/m2
01:06 75.7 °F 63.1 °F 29.62 in SW 12.6 mph 31.0 mph 65% 0.00 in 0.00 W/m2
01:10 75.7 °F 63.5 °F 29.66 in SSW 27.6 mph 46.0 mph 66% 0.00 in 0.00 W/m2
01:11 75.7 °F 63.5 °F 29.66 in WSW 27.6 mph 46.0 mph 66% 0.00 in 0.00 W/m2
01:20 66.3 °F 60.7 °F 29.66 in West 14.9 mph 14.9 mph 82% 0.10 in 0.00 W/m2
01:25 66.2 °F 61.9 °F 29.67 in WSW 11.5 mph 42.5 mph 86% 0.18 in 0.00 W/m2
01:26 66.2 °F 61.6 °F 29.67 in West 38.0 mph 42.5 mph 85% 0.14 in 0.00 W/m2
01:30 65.8 °F 62.5 °F 29.63 in SSW 14.9 mph 29.9 mph 89% 0.31 in 0.00 W/m2
01:31 65.8 °F 62.5 °F 29.63 in WSW 18.4 mph 26.4 mph 89% 0.30 in 0.00 W/m2
01:35 66.0 °F 62.7 °F 29.64 in South 9.2 mph 21.9 mph 89% 0.31 in 0.00 W/m2
01:36 66.0 °F 62.7 °F 29.64 in South 12.6 mph 21.9 mph 89% 0.31 in 0.00 W/m2
01:40 65.9 °F 62.6 °F 29.64 in South 9.2 mph 13.8 mph 89% 0.31 in 0.00 W/m2
01:41 65.9 °F 62.6 °F 29.64 in SW 12.6 mph 13.8 mph 89% 0.31 in 0.00 W/m2
01:45 66.0 °F 62.7 °F 29.64 in South 9.2 mph 18.4 mph 89% 0.31 in 0.00 W/m2
01:46 66.0 °F 62.7 °F 29.64 in South 11.5 mph 18.4 mph 89% 0.31 in 0.00 W/m2
01:50 66.1 °F 62.5 °F 29.64 in South 12.6 mph 14.9 mph 88% 0.31 in 0.00 W/m2
01:51 66.0 °F 62.3 °F 29.64 in SSW 6.9 mph 13.8 mph 88% 0.31 in 0.00 W/m2
01:55 66.3 °F 63.0 °F 29.64 in South 10.4 mph 13.8 mph 89% 0.31 in 0.00 W/m2
01:56 66.2 °F 62.9 °F 29.64 in SSE 8.1 mph 13.8 mph 89% 0.31 in 0.00 W/m2
02:00 66.6 °F 63.3 °F 29.64 in SSW 6.9 mph 14.9 mph 89% 0.31 in 0.00 W/m2
02:01 66.5 °F 63.2 °F 29.64 in South 9.2 mph 14.9 mph 89% 0.31 in 0.00 W/m2
02:05 67.4 °F 64.1 °F 29.63 in SSW 3.5 mph 13.8 mph 89% 0.31 in 0.00 W/m2
02:06 67.3 °F 64.0 °F 29.63 in SSW 5.8 mph 13.8 mph 89% 0.31 in 0.00 W/m2
02:10 68.1 °F 64.4 °F 29.63 in South 11.5 mph 18.4 mph 88% 0.31 in 0.00 W/m2
02:11 68.1 °F 64.4 °F 29.63 in South 9.2 mph 18.4 mph 88% 0.31 in 0.00 W/m2
02:15 69.0 °F 65.0 °F 29.63 in SSW 8.1 mph 20.7 mph 87% 0.31 in 0.00 W/m2
02:16 69.0 °F 65.0 °F 29.63 in SW 6.9 mph 20.7 mph 87% 0.31 in 0.00 W/m2
02:20 69.4 °F 65.0 °F 29.63 in South 13.8 mph 19.5 mph 86% 0.21 in 0.00 W/m2
02:21 69.4 °F 65.0 °F 29.63 in SSW 14.9 mph 19.5 mph 86% 0.21 in 0.00 W/m2
02:25 69.7 °F 65.0 °F 29.63 in South 16.1 mph 21.9 mph 85% 0.21 in 0.00 W/m2
02:26 69.7 °F 65.0 °F 29.63 in South 19.5 mph 19.5 mph 85% 0.13 in 0.00 W/m2
02:30 70.1 °F 65.1 °F 29.63 in SW 13.8 mph 20.7 mph 84% 0.13 in 0.00 W/m2
02:31 70.1 °F 65.1 °F 29.63 in SW 13.8 mph 20.7 mph 84% 0.13 in 0.00 W/m2
02:35 70.3 °F 64.9 °F 29.63 in SW 14.9 mph 19.5 mph 83% 0.00 in 0.00 W/m2
02:36 70.3 °F 64.9 °F 29.63 in SW 14.9 mph 19.5 mph 83% 0.00 in 0.00 W/m2
02:40 70.4 °F 65.0 °F 29.63 in SSE 10.4 mph 23.0 mph 83% 0.00 in 0.00 W/m2
02:41 70.4 °F 65.0 °F 29.63 in South 10.3 mph 10.3 mph 83% 0.00 in 0.00 W/m2
02:45 70.3 °F 64.9 °F 29.63 in SSW 14.9 mph 24.1 mph 83% 0.00 in 0.00 W/m2
02:46 70.3 °F 64.9 °F 29.63 in South 9.2 mph 14.9 mph 83% 0.00 in 0.00 W/m2
02:48 70.4 °F 65.0 °F 29.63 in SSW 6.9 mph 17.2 mph 83% 0.00 in 0.00 W/m2
02:50 70.4 °F 65.0 °F 29.63 in South 12.6 mph 17.2 mph 83% 0.00 in 0.00 W/m2
02:53 70.4 °F 65.0 °F 29.63 in SSW 14.9 mph 19.5 mph 83% 0.00 in 0.00 W/m2
02:55 70.4 °F 65.0 °F 29.63 in SSW 8.1 mph 19.5 mph 83% 0.00 in 0.00 W/m2
02:58 70.4 °F 65.0 °F 29.63 in SSW 14.9 mph 18.4 mph 83% 0.00 in 0.00 W/m2
03:06 70.3 °F 64.9 °F 29.63 in South 13.8 mph 13.8 mph 83% 0.00 in 0.00 W/m2
03:11 70.4 °F 65.0 °F 29.63 in SSW 13.8 mph 20.7 mph 83% 0.00 in 0.00 W/m2
03:16 70.6 °F 65.2 °F 29.64 in SW 9.2 mph 18.4 mph 83% 0.00 in 0.00 W/m2
03:21 70.4 °F 65.0 °F 29.64 in SSE 12.6 mph 20.7 mph 83% 0.00 in 0.00 W/m2
03:26 70.5 °F 65.1 °F 29.63 in SSW 11.5 mph 23.0 mph 83% 0.00 in 0.00 W/m2
03:31 70.6 °F 65.2 °F 29.63 in SW 9.2 mph 11.5 mph 83% 0.00 in 0.00 W/m2
03:36 70.6 °F 65.2 °F 29.64 in SSW 16.1 mph 16.1 mph 83% 0.00 in 0.00 W/m2
03:41 70.6 °F 65.2 °F 29.63 in SSE 8.1 mph 8.1 mph 83% 0.00 in 0.00 W/m2
03:46 70.5 °F 65.1 °F 29.64 in South 10.3 mph 14.9 mph 83% 0.00 in 0.00 W/m2
03:51 70.5 °F 65.1 °F 29.64 in South 16.1 mph 16.1 mph 83% 0.00 in 0.00 W/m2
03:56 70.6 °F 65.2 °F 29.64 in South 16.1 mph 20.7 mph 83% 0.00 in 0.00 W/m2
04:01 70.6 °F 65.2 °F 29.64 in SSW 9.2 mph 19.5 mph 83% 0.00 in 0.00 W/m2
04:06 70.4 °F 65.0 °F 29.64 in South 8.1 mph 9.2 mph 83% 0.00 in 0.00 W/m2
04:12 70.3 °F 64.9 °F 29.64 in SSE 10.3 mph 14.9 mph 83% 0.00 in 0.00 W/m2
04:14 70.2 °F 64.8 °F 29.64 in South 14.9 mph 24.1 mph 83% 0.00 in 0.00 W/m2
04:19 70.2 °F 64.8 °F 29.64 in SSW 12.6 mph 18.4 mph 83% 0.00 in 0.00 W/m2
04:24 70.1 °F 64.7 °F 29.64 in South 11.5 mph 19.5 mph 83% 0.00 in 0.00 W/m2
04:29 69.9 °F 64.8 °F 29.64 in SSW 10.3 mph 18.4 mph 84% 0.00 in 0.00 W/m2
04:34 69.8 °F 64.8 °F 29.64 in SSW 8.1 mph 17.2 mph 84% 0.00 in 0.00 W/m2
04:39 69.8 °F 64.8 °F 29.64 in SSW 8.1 mph 16.1 mph 84% 0.00 in 0.00 W/m2
04:44 69.7 °F 64.7 °F 29.65 in SW 12.6 mph 17.2 mph 84% 0.00 in 0.00 W/m2
04:49 69.7 °F 64.7 °F 29.65 in South 9.2 mph 18.4 mph 84% 0.00 in 0.00 W/m2
04:55 69.8 °F 64.8 °F 29.65 in SSW 8.1 mph 18.4 mph 84% 0.00 in 0.00 W/m2
05:00 69.8 °F 64.8 °F 29.65 in SSW 8.1 mph 17.2 mph 84% 0.00 in 0.00 W/m2
05:05 69.7 °F 64.7 °F 29.65 in SSW 12.6 mph 16.1 mph 84% 0.00 in 0.00 W/m2
05:10 69.7 °F 64.3 °F 29.65 in South 10.3 mph 18.4 mph 83% 0.00 in 0.00 W/m2
05:15 69.7 °F 64.3 °F 29.65 in SW 11.5 mph 18.4 mph 83% 0.00 in 0.00 W/m2
05:20 69.6 °F 64.2 °F 29.65 in SW 12.6 mph 18.4 mph 83% 0.00 in 0.00 W/m2
05:25 69.7 °F 64.3 °F 29.66 in South 8.1 mph 16.1 mph 83% 0.00 in 0.00 W/m2
05:30 69.5 °F 64.1 °F 29.66 in South 6.9 mph 20.7 mph 83% 0.00 in 0.00 W/m2
05:35 69.5 °F 64.1 °F 29.66 in SSE 12.6 mph 20.7 mph 83% 0.00 in 7.00 W/m2
05:40 69.5 °F 64.1 °F 29.66 in South 12.6 mph 17.2 mph 83% 0.00 in 9.00 W/m2
05:45 69.6 °F 64.2 °F 29.66 in SSE 9.2 mph 21.9 mph 83% 0.00 in 12.00 W/m2
05:50 69.5 °F 64.1 °F 29.66 in SW 6.9 mph 18.4 mph 83% 0.00 in 16.00 W/m2
05:55 69.6 °F 64.2 °F 29.66 in SW 9.2 mph 21.9 mph 83% 0.00 in 18.00 W/m2
06:00 69.5 °F 64.1 °F 29.66 in SW 9.2 mph 17.2 mph 83% 0.00 in 21.00 W/m2
06:05 69.7 °F 64.3 °F 29.66 in South 10.3 mph 21.9 mph 83% 0.00 in 25.00 W/m2
06:11 69.8 °F 64.4 °F 29.66 in SSE 17.2 mph 19.5 mph 83% 0.00 in 33.00 W/m2
06:16 69.8 °F 64.4 °F 29.67 in South 12.6 mph 20.7 mph 83% 0.00 in 83.00 W/m2
06:21 69.8 °F 64.4 °F 29.67 in SSE 21.9 mph 21.9 mph 83% 0.00 in 44.00 W/m2
06:26 69.9 °F 64.5 °F 29.67 in South 6.9 mph 18.4 mph 83% 0.00 in 109.00 W/m2
06:31 69.9 °F 64.5 °F 29.67 in South 8.1 mph 19.5 mph 83% 0.00 in 121.00 W/m2
06:36 70.1 °F 64.7 °F 29.68 in South 9.2 mph 18.4 mph 83% 0.00 in 137.00 W/m2
06:41 70.1 °F 64.7 °F 29.68 in SSW 16.1 mph 20.7 mph 83% 0.00 in 149.00 W/m2
06:46 70.3 °F 64.9 °F 29.68 in SW 9.2 mph 19.5 mph 83% 0.00 in 165.00 W/m2
06:51 70.3 °F 64.9 °F 29.69 in SSW 10.3 mph 20.7 mph 83% 0.00 in 172.00 W/m2
06:56 70.6 °F 64.8 °F 29.69 in SSW 12.6 mph 23.0 mph 82% 0.00 in 204.00 W/m2
07:01 70.8 °F 65.0 °F 29.69 in SE 8.1 mph 8.1 mph 82% 0.00 in 220.00 W/m2
07:06 71.0 °F 64.9 °F 29.69 in SW 13.8 mph 16.1 mph 81% 0.00 in 237.00 W/m2
07:11 71.1 °F 65.0 °F 29.69 in SSW 12.6 mph 14.9 mph 81% 0.00 in 253.00 W/m2
07:16 71.2 °F 64.7 °F 29.69 in SW 20.7 mph 20.7 mph 80% 0.00 in 267.00 W/m2
07:21 71.4 °F 64.9 °F 29.69 in SSW 8.1 mph 13.8 mph 80% 0.00 in 285.00 W/m2
07:26 71.6 °F 64.8 °F 29.70 in SSW 6.9 mph 18.4 mph 79% 0.00 in 304.00 W/m2
07:31 71.8 °F 64.6 °F 29.70 in SW 16.1 mph 18.4 mph 78% 0.00 in 318.00 W/m2
07:33 71.9 °F 65.0 °F 29.70 in SW 5.8 mph 18.4 mph 79% 0.00 in 325.00 W/m2
07:38 72.0 °F 64.8 °F 29.70 in SW 8.1 mph 17.2 mph 78% 0.00 in 343.00 W/m2
07:43 72.1 °F 64.9 °F 29.70 in SW 17.2 mph 18.4 mph 78% 0.00 in 357.00 W/m2
07:48 72.3 °F 65.1 °F 29.70 in SSW 18.4 mph 18.4 mph 78% 0.00 in 374.00 W/m2
07:53 72.5 °F 64.5 °F 29.70 in East 12.6 mph 23.0 mph 76% 0.00 in 390.00 W/m2
07:58 72.8 °F 64.8 °F 29.71 in South 9.2 mph 23.0 mph 76% 0.00 in 406.00 W/m2
08:03 73.0 °F 64.6 °F 29.71 in SW 21.9 mph 23.0 mph 75% 0.00 in 424.00 W/m2
08:08 73.2 °F 64.8 °F 29.71 in SW 11.5 mph 14.9 mph 75% 0.00 in 438.00 W/m2
08:13 73.4 °F 64.6 °F 29.71 in SSW 16.1 mph 25.3 mph 74% 0.00 in 454.00 W/m2
08:18 73.5 °F 64.7 °F 29.72 in WSW 16.1 mph 23.0 mph 74% 0.00 in 471.00 W/m2
08:23 73.6 °F 64.8 °F 29.72 in SSW 18.4 mph 18.4 mph 74% 0.00 in 490.00 W/m2
08:28 73.8 °F 64.6 °F 29.72 in SW 24.1 mph 25.3 mph 73% 0.00 in 492.00 W/m2
08:33 73.9 °F 64.3 °F 29.72 in WSW 20.7 mph 33.3 mph 72% 0.00 in 524.00 W/m2
08:38 74.1 °F 64.1 °F 29.71 in SSW 17.2 mph 24.1 mph 71% 0.00 in 536.00 W/m2
08:43 74.4 °F 64.4 °F 29.72 in SSW 13.8 mph 20.7 mph 71% 0.00 in 547.00 W/m2
08:48 74.6 °F 64.6 °F 29.72 in South 14.9 mph 17.2 mph 71% 0.00 in 563.00 W/m2
08:53 74.8 °F 63.5 °F 29.72 in SW 25.3 mph 33.3 mph 68% 0.00 in 578.00 W/m2
08:58 74.9 °F 63.2 °F 29.72 in West 14.9 mph 24.1 mph 67% 0.00 in 598.00 W/m2
09:03 75.0 °F 63.3 °F 29.73 in WSW 24.1 mph 29.9 mph 67% 0.00 in 606.00 W/m2
09:08 75.3 °F 62.3 °F 29.72 in SW 13.8 mph 35.6 mph 64% 0.00 in 624.00 W/m2
09:13 75.3 °F 62.7 °F 29.72 in West 20.7 mph 26.4 mph 65% 0.00 in 642.00 W/m2
09:18 75.4 °F 62.4 °F 29.73 in WSW 19.5 mph 29.9 mph 64% 0.00 in 654.00 W/m2
09:23 75.3 °F 62.3 °F 29.73 in SSW 17.2 mph 31.0 mph 64% 0.00 in 668.00 W/m2
09:28 75.5 °F 62.5 °F 29.73 in West 14.9 mph 31.0 mph 64% 0.00 in 682.00 W/m2
09:33 75.7 °F 62.7 °F 29.73 in SW 14.9 mph 29.9 mph 64% 0.00 in 696.00 W/m2
09:38 75.8 °F 62.8 °F 29.73 in WSW 9.2 mph 21.9 mph 64% 0.00 in 710.00 W/m2
09:43 75.8 °F 62.3 °F 29.73 in SW 31.0 mph 31.0 mph 63% 0.00 in 721.00 W/m2
09:48 76.1 °F 63.9 °F 29.73 in West 17.2 mph 24.1 mph 66% 0.00 in 731.00 W/m2
09:53 76.4 °F 62.9 °F 29.74 in West 18.4 mph 35.6 mph 63% 0.00 in 744.00 W/m2
09:58 76.7 °F 63.6 °F 29.74 in WSW 18.4 mph 24.1 mph 64% 0.00 in 758.00 W/m2
10:03 77.0 °F 63.9 °F 29.74 in WSW 12.6 mph 20.7 mph 64% 0.00 in 770.00 W/m2
10:08 77.5 °F 63.5 °F 29.74 in WSW 9.2 mph 19.5 mph 62% 0.00 in 784.00 W/m2
10:14 77.4 °F 62.9 °F 29.75 in WSW 10.3 mph 27.6 mph 61% 0.00 in 791.00 W/m2
10:19 77.4 °F 62.9 °F 29.75 in SW 23.0 mph 36.8 mph 61% 0.00 in 803.00 W/m2
10:24 77.4 °F 62.0 °F 29.75 in SW 25.3 mph 29.9 mph 59% 0.00 in 817.00 W/m2
10:27 77.3 °F 61.4 °F 29.75 in West 12.6 mph 27.6 mph 58% 0.00 in 824.00 W/m2
10:32 77.5 °F 61.1 °F 29.75 in SW 20.7 mph 25.3 mph 57% 0.00 in 830.00 W/m2
10:37 77.5 °F 61.6 °F 29.75 in SW 18.4 mph 19.5 mph 58% 0.00 in 840.00 W/m2
10:42 77.7 °F 61.3 °F 29.75 in WSW 24.1 mph 28.8 mph 57% 0.00 in 849.00 W/m2
10:47 77.9 °F 62.0 °F 29.76 in SW 14.9 mph 32.2 mph 58% 0.00 in 860.00 W/m2
10:52 78.1 °F 62.1 °F 29.76 in WSW 14.9 mph 27.6 mph 58% 0.00 in 867.00 W/m2
10:57 78.3 °F 62.3 °F 29.75 in WSW 20.7 mph 34.5 mph 58% 0.00 in 877.00 W/m2
11:02 78.2 °F 62.2 °F 29.75 in WSW 13.8 mph 17.2 mph 58% 0.00 in 884.00 W/m2
11:04 78.4 °F 62.4 °F 29.75 in WSW 14.9 mph 29.9 mph 58% 0.00 in 886.00 W/m2
11:09 78.6 °F 62.6 °F 29.76 in SSW 18.4 mph 29.9 mph 58% 0.00 in 896.00 W/m2
11:14 78.8 °F 62.3 °F 29.76 in SW 20.7 mph 26.4 mph 57% 0.00 in 905.00 W/m2
11:19 78.8 °F 62.3 °F 29.76 in SW 24.1 mph 27.6 mph 57% 0.00 in 909.00 W/m2
11:24 79.1 °F 62.6 °F 29.76 in WSW 19.5 mph 26.4 mph 57% 0.00 in 914.00 W/m2
11:29 79.7 °F 63.6 °F 29.76 in SW 11.5 mph 21.9 mph 58% 0.00 in 923.00 W/m2
11:34 79.6 °F 63.5 °F 29.76 in West 19.5 mph 24.1 mph 58% 0.00 in 930.00 W/m2
11:39 80.1 °F 64.0 °F 29.76 in SW 19.5 mph 23.0 mph 58% 0.00 in 935.00 W/m2
11:44 80.3 °F 63.2 °F 29.76 in West 16.1 mph 25.3 mph 56% 0.00 in 942.00 W/m2
11:49 80.4 °F 63.8 °F 29.76 in WSW 9.2 mph 23.0 mph 57% 0.00 in 946.00 W/m2
11:54 80.7 °F 64.1 °F 29.76 in WSW 13.8 mph 17.2 mph 57% 0.00 in 947.00 W/m2
11:59 81.1 °F 60.7 °F 29.76 in SW 16.1 mph 25.3 mph 50% 0.00 in 958.00 W/m2
12:04 81.3 °F 60.9 °F 29.76 in West 13.8 mph 28.8 mph 50% 0.00 in 958.00 W/m2
12:09 81.3 °F 60.9 °F 29.76 in WSW 14.9 mph 24.1 mph 50% 0.00 in 963.00 W/m2
12:15 81.8 °F 59.6 °F 29.76 in West 16.1 mph 23.0 mph 47% 0.00 in 969.00 W/m2
12:20 81.4 °F 59.8 °F 29.76 in SW 12.6 mph 29.9 mph 48% 0.00 in 970.00 W/m2
12:25 81.4 °F 60.4 °F 29.76 in WSW 11.5 mph 21.9 mph 49% 0.00 in 972.00 W/m2
12:30 81.6 °F 60.0 °F 29.76 in West 9.2 mph 27.6 mph 48% 0.00 in 976.00 W/m2
12:35 81.9 °F 60.3 °F 29.76 in WSW 10.3 mph 23.0 mph 48% 0.00 in 976.00 W/m2
12:40 82.4 °F 59.6 °F 29.76 in West 17.2 mph 26.4 mph 46% 0.00 in 977.00 W/m2
12:45 81.8 °F 59.6 °F 29.76 in West 21.9 mph 29.9 mph 47% 0.00 in 976.00 W/m2
12:50 81.8 °F 59.0 °F 29.76 in West 18.4 mph 28.8 mph 46% 0.00 in 979.00 W/m2
12:55 82.5 °F 60.3 °F 29.76 in WNW 16.1 mph 24.1 mph 47% 0.00 in 979.00 W/m2
13:00 82.7 °F 59.8 °F 29.76 in WSW 23.0 mph 24.1 mph 46% 0.00 in 976.00 W/m2
13:05 83.0 °F 59.5 °F 29.76 in West 13.8 mph 26.4 mph 45% 0.00 in 977.00 W/m2
13:10 83.0 °F 58.9 °F 29.77 in West 25.3 mph 28.8 mph 44% 0.00 in 976.00 W/m2
13:15 82.7 °F 59.8 °F 29.77 in WSW 19.5 mph 29.9 mph 46% 0.00 in 972.00 W/m2
13:20 82.7 °F 59.8 °F 29.77 in West 19.5 mph 23.0 mph 46% 0.00 in 969.00 W/m2
13:25 82.8 °F 59.3 °F 29.77 in WSW 11.5 mph 25.3 mph 45% 0.00 in 967.00 W/m2
13:30 83.3 °F 60.4 °F 29.77 in West 14.9 mph 27.6 mph 46% 0.00 in 963.00 W/m2
13:35 83.2 °F 59.7 °F 29.77 in WSW 28.8 mph 28.8 mph 45% 0.00 in 962.00 W/m2
13:40 83.2 °F 59.7 °F 29.77 in WSW 13.8 mph 23.0 mph 45% 0.00 in 958.00 W/m2
13:45 83.6 °F 60.7 °F 29.77 in WNW 14.9 mph 21.9 mph 46% 0.00 in 949.00 W/m2
13:50 83.8 °F 60.8 °F 29.77 in West 12.6 mph 27.6 mph 46% 0.00 in 946.00 W/m2
13:53 83.8 °F 61.4 °F 29.77 in West 12.6 mph 18.4 mph 47% 0.00 in 944.00 W/m2
13:58 84.1 °F 61.1 °F 29.77 in SW 6.9 mph 21.9 mph 46% 0.00 in 940.00 W/m2
14:03 84.7 °F 62.3 °F 29.77 in WNW 13.8 mph 17.2 mph 47% 0.00 in 933.00 W/m2
14:08 84.5 °F 60.8 °F 29.77 in WSW 13.8 mph 19.5 mph 45% 0.00 in 930.00 W/m2
14:13 84.1 °F 61.1 °F 29.78 in WNW 16.1 mph 19.5 mph 46% 0.00 in 919.00 W/m2
14:18 84.5 °F 61.5 °F 29.77 in West 11.5 mph 23.0 mph 46% 0.00 in 914.00 W/m2
14:23 84.1 °F 61.7 °F 29.78 in WSW 10.3 mph 19.5 mph 47% 0.00 in 905.00 W/m2
14:28 84.2 °F 61.8 °F 29.78 in WNW 14.9 mph 21.9 mph 47% 0.00 in 898.00 W/m2
14:33 84.6 °F 62.2 °F 29.78 in West 14.9 mph 20.7 mph 47% 0.00 in 893.00 W/m2
14:38 84.2 °F 62.4 °F 29.78 in West 20.7 mph 20.7 mph 48% 0.00 in 884.00 W/m2
14:43 84.2 °F 61.8 °F 29.78 in WSW 13.8 mph 17.2 mph 47% 0.00 in 874.00 W/m2
14:48 84.1 °F 61.1 °F 29.78 in WNW 12.6 mph 17.2 mph 46% 0.00 in 865.00 W/m2
14:53 83.9 °F 62.7 °F 29.78 in WNW 13.8 mph 16.1 mph 49% 0.00 in 854.00 W/m2
14:58 84.3 °F 62.5 °F 29.78 in WNW 12.6 mph 14.9 mph 48% 0.00 in 846.00 W/m2
15:03 84.1 °F 62.9 °F 29.78 in SW 12.6 mph 18.4 mph 49% 0.00 in 835.00 W/m2
15:09 84.1 °F 64.0 °F 29.78 in WNW 21.9 mph 21.9 mph 51% 0.00 in 824.00 W/m2
15:14 84.0 °F 62.8 °F 29.79 in WSW 9.2 mph 18.4 mph 49% 0.00 in 817.00 W/m2
15:19 83.8 °F 62.0 °F 29.79 in WNW 13.8 mph 18.4 mph 48% 0.00 in 805.00 W/m2
15:24 83.6 °F 63.0 °F 29.79 in WNW 4.6 mph 19.5 mph 50% 0.00 in 793.00 W/m2
15:29 83.7 °F 62.0 °F 29.80 in West 9.2 mph 19.5 mph 48% 0.00 in 780.00 W/m2
15:34 83.7 °F 63.7 °F 29.79 in WSW 10.3 mph 16.1 mph 51% 0.00 in 770.00 W/m2
15:39 83.9 °F 62.1 °F 29.79 in WNW 12.6 mph 17.2 mph 48% 0.00 in 758.00 W/m2
15:44 83.5 °F 61.8 °F 29.79 in NW 17.2 mph 19.5 mph 48% 0.00 in 744.00 W/m2
15:49 83.3 °F 62.7 °F 29.79 in NW 9.2 mph 17.2 mph 50% 0.00 in 731.00 W/m2
15:54 83.6 °F 63.0 °F 29.79 in WNW 16.1 mph 18.4 mph 50% 0.00 in 721.00 W/m2
15:59 83.4 °F 62.3 °F 29.80 in WNW 13.8 mph 17.2 mph 49% 0.00 in 705.00 W/m2
16:04 83.2 °F 62.1 °F 29.79 in WNW 18.4 mph 20.7 mph 49% 0.00 in 693.00 W/m2
16:09 83.4 °F 62.8 °F 29.79 in West 14.9 mph 17.2 mph 50% 0.00 in 680.00 W/m2
16:14 83.2 °F 61.5 °F 29.80 in West 12.6 mph 19.5 mph 48% 0.00 in 666.00 W/m2
16:19 83.6 °F 63.6 °F 29.80 in NW 10.3 mph 14.9 mph 51% 0.00 in 652.00 W/m2
16:24 83.9 °F 62.7 °F 29.80 in NW 12.6 mph 21.9 mph 49% 0.00 in 638.00 W/m2
16:29 83.3 °F 62.2 °F 29.80 in WNW 18.4 mph 18.4 mph 49% 0.00 in 624.00 W/m2
16:34 83.3 °F 62.7 °F 29.80 in NW 11.5 mph 16.1 mph 50% 0.00 in 610.00 W/m2
16:40 83.6 °F 62.4 °F 29.80 in West 9.2 mph 18.4 mph 49% 0.00 in 596.00 W/m2
16:45 83.5 °F 61.8 °F 29.80 in WSW 9.2 mph 16.1 mph 48% 0.00 in 578.00 W/m2
16:50 83.6 °F 62.4 °F 29.80 in WNW 6.9 mph 16.1 mph 49% 0.00 in 563.00 W/m2
16:55 83.6 °F 63.0 °F 29.80 in West 10.3 mph 13.8 mph 50% 0.00 in 547.00 W/m2
17:00 83.5 °F 62.9 °F 29.80 in WNW 13.8 mph 21.9 mph 50% 0.00 in 533.00 W/m2
17:05 83.1 °F 62.5 °F 29.81 in West 9.2 mph 13.8 mph 50% 0.00 in 517.00 W/m2
17:10 83.6 °F 63.0 °F 29.81 in WNW 11.5 mph 18.4 mph 50% 0.00 in 501.00 W/m2
17:15 83.3 °F 62.7 °F 29.81 in NW 16.1 mph 19.5 mph 50% 0.00 in 485.00 W/m2
17:20 82.8 °F 62.3 °F 29.81 in WNW 11.5 mph 17.2 mph 50% 0.00 in 469.00 W/m2
17:25 83.0 °F 63.0 °F 29.81 in WNW 8.1 mph 13.8 mph 51% 0.00 in 452.00 W/m2
17:30 83.0 °F 62.5 °F 29.81 in NW 16.1 mph 16.1 mph 50% 0.00 in 436.00 W/m2
17:35 82.9 °F 64.6 °F 29.81 in WNW 9.2 mph 12.6 mph 54% 0.00 in 418.00 W/m2
17:40 82.8 °F 62.8 °F 29.81 in NW 13.8 mph 18.4 mph 51% 0.00 in 403.00 W/m2
17:45 82.4 °F 61.9 °F 29.81 in NNW 11.5 mph 17.2 mph 50% 0.00 in 385.00 W/m2
17:50 82.0 °F 62.7 °F 29.81 in West 13.8 mph 20.7 mph 52% 0.00 in 369.00 W/m2
17:55 81.7 °F 61.8 °F 29.81 in NW 13.8 mph 17.2 mph 51% 0.00 in 355.00 W/m2
18:00 81.9 °F 62.6 °F 29.81 in WNW 10.3 mph 16.1 mph 52% 0.00 in 339.00 W/m2
18:05 81.5 °F 62.7 °F 29.81 in West 8.1 mph 18.4 mph 53% 0.00 in 320.00 W/m2
18:10 81.1 °F 62.4 °F 29.81 in NW 11.5 mph 20.7 mph 53% 0.00 in 294.00 W/m2
18:15 80.5 °F 62.9 °F 29.81 in WNW 10.3 mph 17.2 mph 55% 0.00 in 285.00 W/m2
18:20 80.1 °F 62.5 °F 29.81 in WNW 6.9 mph 18.4 mph 55% 0.00 in 65.00 W/m2
18:25 79.7 °F 62.1 °F 29.81 in NW 14.9 mph 18.4 mph 55% 0.00 in 250.00 W/m2
18:31 79.3 °F 62.8 °F 29.81 in NW 8.1 mph 14.9 mph 57% 0.00 in 232.00 W/m2
18:36 79.0 °F 62.5 °F 29.81 in NW 12.6 mph 16.1 mph 57% 0.00 in 209.00 W/m2
18:41 78.5 °F 62.5 °F 29.81 in WNW 10.3 mph 13.8 mph 58% 0.00 in 142.00 W/m2
18:46 78.0 °F 62.0 °F 29.82 in NNW 9.2 mph 17.2 mph 58% 0.00 in 60.00 W/m2
18:51 77.4 °F 62.4 °F 29.82 in NW 8.1 mph 18.4 mph 60% 0.00 in 47.00 W/m2
18:56 76.7 °F 61.8 °F 29.82 in NW 13.8 mph 14.9 mph 60% 0.00 in 42.00 W/m2
19:01 76.1 °F 62.2 °F 29.82 in NW 9.2 mph 13.8 mph 62% 0.00 in 42.00 W/m2
19:06 75.6 °F 62.1 °F 29.83 in NNW 9.2 mph 14.9 mph 63% 0.00 in 37.00 W/m2
19:11 75.3 °F 61.8 °F 29.83 in NNW 8.1 mph 12.6 mph 63% 0.00 in 35.00 W/m2
19:16 74.9 °F 61.5 °F 29.83 in North 6.9 mph 16.1 mph 63% 0.00 in 33.00 W/m2
19:21 74.6 °F 61.6 °F 29.83 in NW 8.1 mph 11.5 mph 64% 0.00 in 32.00 W/m2
19:26 74.2 °F 61.2 °F 29.83 in NNW 11.5 mph 12.6 mph 64% 0.00 in 28.00 W/m2
19:31 73.9 °F 61.0 °F 29.84 in WNW 9.2 mph 9.2 mph 64% 0.00 in 25.00 W/m2
19:36 73.5 °F 61.0 °F 29.84 in NNW 10.3 mph 10.3 mph 65% 0.00 in 21.00 W/m2
19:41 73.1 °F 60.7 °F 29.84 in NNW 6.9 mph 6.9 mph 65% 0.00 in 18.00 W/m2
19:46 72.8 °F 60.8 °F 29.84 in NNW 9.2 mph 9.2 mph 66% 0.00 in 14.00 W/m2
19:51 72.5 °F 60.5 °F 29.85 in NNW 5.8 mph 8.1 mph 66% 0.00 in 11.00 W/m2
19:56 72.1 °F 60.5 °F 29.85 in NW 9.2 mph 9.2 mph 67% 0.00 in 9.00 W/m2
20:01 71.7 °F 60.2 °F 29.85 in NW 8.1 mph 9.2 mph 67% 0.00 in 5.00 W/m2
20:07 71.5 °F 60.0 °F 29.85 in NNW 9.2 mph 13.8 mph 67% 0.00 in 0.00 W/m2
20:12 71.2 °F 59.7 °F 29.85 in NNW 4.6 mph 4.6 mph 67% 0.00 in 0.00 W/m2
20:17 70.5 °F 59.4 °F 29.85 in North 3.4 mph 8.1 mph 68% 0.00 in 0.00 W/m2
20:22 69.9 °F 59.7 °F 29.85 in North 1.1 mph 6.9 mph 70% 0.00 in 0.00 W/m2
20:27 69.5 °F 59.7 °F 29.85 in NNW 8.1 mph 8.1 mph 71% 0.00 in 0.00 W/m2
20:32 69.0 °F 59.6 °F 29.85 in North 5.8 mph 5.8 mph 72% 0.00 in 0.00 W/m2
20:37 68.7 °F 59.7 °F 29.86 in North 2.3 mph 6.9 mph 73% 0.00 in 0.00 W/m2
20:42 68.4 °F 59.4 °F 29.86 in North 1.1 mph 5.8 mph 73% 0.00 in 0.00 W/m2
20:47 68.0 °F 57.1 °F 29.88 in ENE 10.3 mph 13.8 mph 68% 0.00 in 0.00 W/m2
20:52 64.2 °F 54.2 °F 29.88 in NNE 12.6 mph 12.6 mph 70% 0.00 in 0.00 W/m2
20:57 61.4 °F 52.7 °F 29.89 in East 6.9 mph 13.8 mph 73% 0.00 in 0.00 W/m2
21:02 59.7 °F 51.8 °F 29.90 in East 9.2 mph 18.4 mph 75% 0.00 in 0.00 W/m2
21:07 58.8 °F 51.6 °F 29.91 in NE 4.6 mph 12.6 mph 77% 0.00 in 0.00 W/m2
21:12 58.2 °F 51.4 °F 29.91 in NE 13.8 mph 13.8 mph 78% 0.00 in 0.00 W/m2
21:17 57.7 °F 50.9 °F 29.92 in NE 6.9 mph 12.6 mph 78% 0.00 in 0.00 W/m2
21:22 57.4 °F 50.6 °F 29.93 in NNE 2.3 mph 8.1 mph 78% 0.00 in 0.00 W/m2
21:27 57.0 °F 50.2 °F 29.94 in NE 2.3 mph 11.5 mph 78% 0.00 in 0.00 W/m2
21:32 56.7 °F 49.9 °F 29.94 in NE 6.9 mph 12.6 mph 78% 0.00 in 0.00 W/m2
21:37 56.3 °F 49.5 °F 29.95 in NNE 4.6 mph 8.1 mph 78% 0.00 in 0.00 W/m2
21:42 55.9 °F 49.2 °F 29.96 in NNE 4.6 mph 12.6 mph 78% 0.00 in 0.00 W/m2
21:47 55.6 °F 48.9 °F 29.96 in NE 12.6 mph 18.4 mph 78% 0.00 in 0.00 W/m2
21:52 55.2 °F 48.8 °F 29.96 in NNE 8.1 mph 16.1 mph 79% 0.00 in 0.00 W/m2
21:53 55.1 °F 48.7 °F 29.96 in NE 2.3 mph 16.1 mph 79% 0.00 in 0.00 W/m2
21:58 54.6 °F 48.6 °F 29.97 in ENE 5.8 mph 13.8 mph 80% 0.00 in 0.00 W/m2
22:03 54.2 °F 48.5 °F 29.97 in ENE 8.1 mph 11.5 mph 81% 0.00 in 0.00 W/m2
22:08 53.9 °F 48.2 °F 29.97 in NE 5.8 mph 10.3 mph 81% 0.00 in 0.00 W/m2
22:13 53.7 °F 48.0 °F 29.98 in ENE 10.3 mph 16.1 mph 81% 0.00 in 0.00 W/m2
22:18 53.4 °F 47.7 °F 29.98 in NE 6.9 mph 11.5 mph 81% 0.00 in 0.00 W/m2
22:23 53.1 °F 47.1 °F 29.98 in NE 14.9 mph 21.9 mph 80% 0.00 in 0.00 W/m2
22:28 52.8 °F 46.8 °F 29.99 in ENE 11.5 mph 13.8 mph 80% 0.00 in 0.00 W/m2
22:33 52.6 °F 46.6 °F 29.99 in NE 11.5 mph 23.0 mph 80% 0.00 in 0.00 W/m2
22:39 52.3 °F 46.0 °F 29.99 in ESE 11.5 mph 17.2 mph 79% 0.00 in 0.00 W/m2
22:44 52.2 °F 45.9 °F 30.00 in NNE 12.6 mph 21.9 mph 79% 0.00 in 0.00 W/m2
22:49 52.1 °F 45.8 °F 30.00 in NE 16.1 mph 17.2 mph 79% 0.00 in 0.00 W/m2
22:54 52.0 °F 45.7 °F 30.00 in NE 11.5 mph 18.4 mph 79% 0.00 in 0.00 W/m2
22:59 51.9 °F 45.6 °F 30.01 in ENE 12.6 mph 18.4 mph 79% 0.00 in 0.00 W/m2
23:04 51.9 °F 45.6 °F 30.01 in Calm   17.2 mph 79% 0.00 in 0.00 W/m2
23:09 51.8 °F 45.5 °F 30.01 in NE 9.2 mph 14.9 mph 79% 0.00 in 0.00 W/m2
23:14 51.8 °F 45.5 °F 30.00 in NE 5.8 mph 16.1 mph 79% 0.00 in 0.00 W/m2
23:19 51.8 °F 45.2 °F 30.00 in East 12.6 mph 19.5 mph 78% 0.00 in 0.00 W/m2
23:24 51.8 °F 45.2 °F 30.01 in East 8.1 mph 18.4 mph 78% 0.00 in 0.00 W/m2
23:29 51.8 °F 44.8 °F 30.00 in ENE 9.2 mph 20.7 mph 77% 0.00 in 0.00 W/m2
23:34 51.9 °F 44.9 °F 30.00 in NE 8.1 mph 18.4 mph 77% 0.00 in 0.00 W/m2
23:39 51.8 °F 44.8 °F 30.00 in NNE 8.1 mph 20.7 mph 77% 0.00 in 0.00 W/m2
23:44 51.8 °F 44.8 °F 30.00 in ENE 17.2 mph 17.2 mph 77% 0.00 in 0.00 W/m2
23:49 51.7 °F 44.7 °F 30.00 in ENE 8.1 mph 19.5 mph 77% 0.00 in 0.00 W/m2
23:54 51.7 °F 44.7 °F 30.00 in NE 2.3 mph 19.5 mph 77% 0.00 in 0.00 W/m2
23:59 51.7 °F 44.7 °F 30.00 in NE 6.9 mph 19.5 mph 77% 0.00 in 0.00 W/m2
peotoneweather.com
Compliments of Weather Underground - 1.75 mb